createdAt,value
2023-05-06T00:00:27.620Z,7.27
2023-05-06T00:02:55.733Z,7.24
2023-05-06T00:05:22.727Z,7.24
2023-05-06T00:07:49.947Z,7.24
2023-05-06T00:10:17.249Z,7.25
2023-05-06T00:12:44.457Z,7.24
2023-05-06T00:15:11.769Z,7.23
2023-05-06T00:17:39.222Z,7.23
2023-05-06T00:20:07.156Z,7.23
2023-05-06T00:22:34.264Z,7.25
2023-05-06T00:25:01.215Z,7.26
2023-05-06T00:27:28.132Z,7.27
2023-05-06T00:29:55.124Z,7.23
2023-05-06T00:32:21.964Z,7.20
2023-05-06T00:34:48.903Z,7.17
2023-05-06T00:37:16.130Z,7.13
2023-05-06T00:39:43.081Z,7.12
2023-05-06T00:42:10.065Z,7.13
2023-05-06T00:44:36.996Z,7.12
2023-05-06T00:47:04.046Z,7.11
2023-05-06T00:49:31.224Z,7.10
2023-05-06T00:51:58.472Z,7.10
2023-05-06T00:54:28.687Z,7.07
2023-05-06T00:56:55.862Z,7.06
2023-05-06T00:59:25.010Z,7.05
2023-05-06T01:01:54.057Z,7.03
2023-05-06T01:04:22.728Z,7.01
2023-05-06T01:07:03.187Z,6.98
2023-05-06T01:09:43.062Z,6.95
2023-05-06T01:12:17.721Z,6.92
2023-05-06T01:14:47.556Z,6.88
2023-05-06T01:17:18.602Z,6.83
2023-05-06T01:19:53.551Z,6.82
2023-05-06T01:22:20.840Z,6.78
2023-05-06T01:24:48.049Z,6.75
2023-05-06T01:27:16.912Z,6.72
2023-05-06T01:29:45.488Z,6.72
2023-05-06T01:32:31.392Z,6.72
2023-05-06T01:35:10.668Z,6.69
2023-05-06T01:37:43.999Z,6.65
2023-05-06T01:40:10.963Z,6.64
2023-05-06T01:42:37.980Z,6.61
2023-05-06T01:45:05.502Z,6.59
2023-05-06T01:47:32.939Z,6.57
2023-05-06T01:49:59.924Z,6.56
2023-05-06T01:52:26.924Z,6.57
2023-05-06T01:54:56.409Z,6.58
2023-05-06T01:57:24.574Z,6.58
2023-05-06T01:59:51.627Z,6.57
2023-05-06T02:02:18.581Z,6.56
2023-05-06T02:04:46.052Z,6.54
2023-05-06T02:07:13.287Z,6.53
2023-05-06T02:09:40.875Z,6.50
2023-05-06T02:12:07.810Z,6.44
2023-05-06T02:14:34.919Z,6.38
2023-05-06T02:17:05.866Z,6.32
2023-05-06T02:19:32.951Z,6.25
2023-05-06T02:21:59.942Z,6.17
2023-05-06T02:24:27.013Z,6.11
2023-05-06T02:26:54.107Z,6.08
2023-05-06T02:29:21.246Z,6.04
2023-05-06T02:31:48.319Z,6.01
2023-05-06T02:34:16.434Z,6.00
2023-05-06T02:36:43.577Z,5.98
2023-05-06T02:39:10.531Z,5.96
2023-05-06T02:41:37.584Z,5.94
2023-05-06T02:44:04.782Z,5.93
2023-05-06T02:46:32.550Z,5.89
2023-05-06T02:49:00.696Z,5.85
2023-05-06T02:51:28.300Z,5.82
2023-05-06T02:53:55.672Z,5.79
2023-05-06T02:56:22.647Z,5.77
2023-05-06T02:58:49.791Z,5.75
2023-05-06T03:01:16.871Z,5.75
2023-05-06T03:03:43.871Z,5.75
2023-05-06T03:06:10.864Z,5.76
2023-05-06T03:08:38.104Z,5.77
2023-05-06T03:11:08.013Z,5.76
2023-05-06T03:13:35.808Z,5.77
2023-05-06T03:16:02.884Z,5.76
2023-05-06T03:18:30.301Z,5.72
2023-05-06T03:20:57.519Z,5.69
2023-05-06T03:23:24.852Z,5.67
2023-05-06T03:25:51.949Z,5.66
2023-05-06T03:28:19.167Z,5.63
2023-05-06T03:30:46.903Z,5.62
2023-05-06T03:33:14.148Z,5.63
2023-05-06T03:35:41.731Z,5.66
2023-05-06T03:38:08.794Z,5.73
2023-05-06T03:40:47.109Z,5.82
2023-05-06T03:43:14.480Z,5.92
2023-05-06T03:45:43.171Z,6.02
2023-05-06T03:48:10.559Z,6.08
2023-05-06T03:50:41.035Z,6.08
2023-05-06T03:53:08.232Z,6.06
2023-05-06T03:55:38.998Z,6.05
2023-05-06T03:58:06.273Z,6.02
2023-05-06T04:00:33.364Z,6.00
2023-05-06T04:03:00.615Z,6.03
2023-05-06T04:05:33.125Z,6.11
2023-05-06T04:08:00.985Z,6.17
2023-05-06T04:10:28.066Z,6.20
2023-05-06T04:12:58.978Z,6.19
2023-05-06T04:15:32.288Z,6.17
2023-05-06T04:18:00.393Z,6.23
2023-05-06T04:20:28.489Z,6.37
2023-05-06T04:22:58.710Z,6.54
2023-05-06T04:25:26.203Z,6.72
2023-05-06T04:27:53.400Z,6.85
2023-05-06T04:30:21.407Z,6.95
2023-05-06T04:32:48.981Z,7.04
2023-05-06T04:35:16.489Z,7.07
2023-05-06T04:37:43.675Z,7.11
2023-05-06T04:40:18.140Z,7.16
2023-05-06T04:42:45.829Z,7.22
2023-05-06T04:45:18.160Z,7.32
2023-05-06T04:47:47.606Z,7.43
2023-05-06T04:50:14.612Z,7.54
2023-05-06T04:52:41.694Z,7.65
2023-05-06T04:55:09.190Z,7.71
2023-05-06T04:57:37.540Z,7.81
2023-05-06T05:00:05.727Z,7.94
2023-05-06T05:02:33.076Z,8.07
2023-05-06T05:05:00.392Z,8.20
2023-05-06T05:07:28.066Z,8.31
2023-05-06T05:09:55.076Z,8.38
2023-05-06T05:12:22.241Z,8.47
2023-05-06T05:14:50.486Z,8.58
2023-05-06T05:17:17.485Z,8.76
2023-05-06T05:19:45.223Z,8.94
2023-05-06T05:22:12.607Z,8.97
2023-05-06T05:24:39.671Z,8.95
2023-05-06T05:27:07.597Z,8.95
2023-05-06T05:29:35.740Z,8.98
2023-05-06T05:32:03.488Z,9.02
2023-05-06T05:34:30.568Z,9.07
2023-05-06T05:36:58.292Z,9.19
2023-05-06T05:39:25.821Z,9.33
2023-05-06T05:41:52.888Z,9.43
2023-05-06T05:44:20.126Z,9.53
2023-05-06T05:46:47.440Z,9.63
2023-05-06T05:49:16.309Z,9.73
2023-05-06T05:51:46.099Z,9.85
2023-05-06T05:54:15.102Z,9.91
2023-05-06T05:56:42.337Z,9.97
2023-05-06T05:59:09.225Z,10.10
2023-05-06T06:01:36.061Z,10.16
2023-05-06T06:04:03.888Z,10.20
2023-05-06T06:06:31.657Z,10.28
2023-05-06T06:08:58.975Z,10.36
2023-05-06T06:11:27.786Z,10.43
2023-05-06T06:13:54.978Z,10.46
2023-05-06T06:16:22.199Z,10.39
2023-05-06T06:18:49.135Z,10.37
2023-05-06T06:21:16.193Z,10.45
2023-05-06T06:23:43.081Z,10.58
2023-05-06T06:26:12.173Z,10.73
2023-05-06T06:28:44.828Z,10.83
2023-05-06T06:31:12.179Z,10.91
2023-05-06T06:33:39.234Z,10.97
2023-05-06T06:36:06.692Z,11.01
2023-05-06T06:38:33.703Z,11.10
2023-05-06T06:41:00.697Z,11.14
2023-05-06T06:43:27.790Z,11.16
2023-05-06T06:46:00.960Z,11.29
2023-05-06T06:48:27.942Z,11.47
2023-05-06T06:50:54.895Z,11.61
2023-05-06T06:53:22.104Z,11.58
2023-05-06T06:55:49.227Z,11.57
2023-05-06T06:58:16.205Z,11.62
2023-05-06T07:00:43.231Z,11.62
2023-05-06T07:03:10.303Z,11.63
2023-05-06T07:05:37.215Z,11.69
2023-05-06T07:08:04.164Z,11.83
2023-05-06T07:10:31.154Z,12.00
2023-05-06T07:12:58.532Z,12.15
2023-05-06T07:15:25.856Z,12.26
2023-05-06T07:17:52.796Z,12.34
2023-05-06T07:20:19.738Z,12.36
2023-05-06T07:22:49.981Z,12.38
2023-05-06T07:25:16.968Z,12.40
2023-05-06T07:27:43.895Z,12.39
2023-05-06T07:30:11.286Z,12.40
2023-05-06T07:32:38.332Z,12.46
2023-05-06T07:35:05.974Z,12.53
2023-05-06T07:37:33.249Z,12.54
2023-05-06T07:40:00.394Z,12.46
2023-05-06T07:42:27.598Z,12.41
2023-05-06T07:44:54.564Z,12.43
2023-05-06T07:47:29.700Z,12.47
2023-05-06T07:49:57.023Z,12.60
2023-05-06T07:52:24.184Z,12.64
2023-05-06T07:54:51.196Z,12.77
2023-05-06T07:57:18.166Z,12.82
2023-05-06T07:59:47.685Z,12.87
2023-05-06T08:02:15.412Z,12.88
2023-05-06T08:04:43.118Z,12.97
2023-05-06T08:07:10.816Z,13.14
2023-05-06T08:09:37.948Z,13.34
2023-05-06T08:12:05.656Z,13.37
2023-05-06T08:14:32.591Z,13.37
2023-05-06T08:16:59.922Z,13.41
2023-05-06T08:19:27.025Z,13.51
2023-05-06T08:21:54.873Z,13.58
2023-05-06T08:24:21.770Z,13.66
2023-05-06T08:26:48.846Z,13.80
2023-05-06T08:29:15.981Z,13.95
2023-05-06T08:31:43.358Z,14.09
2023-05-06T08:34:10.492Z,14.32
2023-05-06T08:36:37.531Z,14.46
2023-05-06T08:39:04.659Z,14.47
2023-05-06T08:41:34.088Z,14.41
2023-05-06T08:44:01.280Z,14.40
2023-05-06T08:46:30.998Z,14.42
2023-05-06T08:49:01.042Z,14.57
2023-05-06T08:51:29.618Z,14.66
2023-05-06T08:53:56.567Z,14.67
2023-05-06T08:56:24.697Z,14.67
2023-05-06T08:58:52.085Z,14.72
2023-05-06T09:01:19.105Z,14.67
2023-05-06T09:03:47.253Z,14.69
2023-05-06T09:06:14.220Z,14.77
2023-05-06T09:08:41.114Z,14.85
2023-05-06T09:11:24.936Z,14.93
2023-05-06T09:13:52.097Z,15.02
2023-05-06T09:16:29.583Z,14.97
2023-05-06T09:18:57.027Z,15.01
2023-05-06T09:21:32.104Z,15.14
2023-05-06T09:23:59.209Z,15.18
2023-05-06T09:26:27.853Z,15.22
2023-05-06T09:28:55.140Z,15.20
2023-05-06T09:31:22.125Z,15.19
2023-05-06T09:33:49.302Z,15.20
2023-05-06T09:36:16.599Z,15.26
2023-05-06T09:38:46.065Z,15.34
2023-05-06T09:41:13.276Z,15.34
2023-05-06T09:43:44.858Z,15.36
2023-05-06T09:46:12.797Z,15.45
2023-05-06T09:48:39.916Z,15.49
2023-05-06T09:51:09.785Z,15.57
2023-05-06T09:53:39.598Z,15.66
2023-05-06T09:56:07.659Z,15.71
2023-05-06T09:58:35.441Z,15.75
2023-05-06T10:01:06.403Z,15.73
2023-05-06T10:03:33.673Z,15.59
2023-05-06T10:06:02.291Z,15.55
2023-05-06T10:08:29.622Z,15.54
2023-05-06T10:10:57.260Z,15.46
2023-05-06T10:13:24.993Z,15.39
2023-05-06T10:15:51.990Z,15.18
2023-05-06T10:18:21.016Z,14.84
2023-05-06T10:20:48.768Z,14.77
2023-05-06T10:23:48.346Z,14.91
2023-05-06T10:26:15.514Z,15.03
2023-05-06T10:28:43.015Z,15.09
2023-05-06T10:31:12.550Z,15.11
2023-05-06T10:33:46.378Z,15.04
2023-05-06T10:36:20.668Z,14.97
2023-05-06T10:38:56.511Z,14.80
2023-05-06T10:41:27.135Z,14.77
2023-05-06T10:43:57.213Z,14.77
2023-05-06T10:46:26.425Z,14.77
2023-05-06T10:49:06.326Z,14.74
2023-05-06T10:51:36.503Z,14.76
2023-05-06T10:54:10.009Z,14.82
2023-05-06T10:56:41.112Z,14.87
2023-05-06T11:02:12.862Z,14.74
2023-05-06T11:04:40.061Z,14.69
2023-05-06T11:07:14.333Z,14.62
2023-05-06T11:10:01.231Z,14.58
2023-05-06T11:12:51.287Z,14.67
2023-05-06T11:15:26.752Z,14.81
2023-05-06T11:17:55.787Z,14.77
2023-05-06T11:20:26.267Z,14.72
2023-05-06T11:22:53.392Z,14.60
2023-05-06T11:25:39.311Z,14.54
2023-05-06T11:28:10.959Z,14.47
2023-05-06T11:30:42.831Z,14.43
2023-05-06T11:33:15.615Z,14.37
2023-05-06T11:35:42.560Z,14.29
2023-05-06T11:38:09.688Z,14.25
2023-05-06T11:40:36.649Z,14.22
2023-05-06T11:43:16.704Z,14.15
2023-05-06T11:45:50.745Z,14.17
2023-05-06T11:48:18.238Z,14.31
2023-05-06T11:50:47.597Z,14.37
2023-05-06T11:53:16.637Z,14.34
2023-05-06T11:55:44.752Z,14.28
2023-05-06T11:58:30.536Z,14.17
2023-05-06T12:00:59.648Z,14.10
2023-05-06T12:03:27.907Z,14.03
2023-05-06T12:05:58.022Z,14.04
2023-05-06T12:08:30.972Z,14.08
2023-05-06T12:11:02.419Z,14.20
2023-05-06T12:13:29.636Z,14.21
2023-05-06T12:15:58.531Z,14.14
2023-05-06T12:18:25.727Z,14.06
2023-05-06T12:20:56.536Z,13.97
2023-05-06T12:23:23.760Z,14.02
2023-05-06T12:26:06.830Z,14.15
2023-05-06T12:28:40.580Z,14.22
2023-05-06T12:31:23.465Z,14.24
2023-05-06T12:33:50.803Z,14.22
2023-05-06T12:36:38.796Z,14.23
2023-05-06T12:39:06.241Z,14.25
2023-05-06T12:41:42.897Z,14.25
2023-05-06T12:44:38.780Z,14.23
2023-05-06T12:47:36.239Z,14.30
2023-05-06T12:50:03.538Z,14.26
2023-05-06T12:52:30.815Z,14.16
2023-05-06T12:54:58.065Z,14.12
2023-05-06T12:57:25.096Z,14.12
2023-05-06T12:59:52.646Z,14.11
2023-05-06T13:02:22.435Z,14.04
2023-05-06T13:04:49.903Z,13.95
2023-05-06T13:07:26.338Z,13.85
2023-05-06T13:09:53.781Z,13.75
2023-05-06T13:12:21.120Z,13.72
2023-05-06T13:14:53.751Z,13.70
2023-05-06T13:17:25.906Z,13.71
2023-05-06T13:19:58.640Z,13.70
2023-05-06T13:22:25.800Z,13.67
2023-05-06T13:24:52.862Z,13.65
2023-05-06T13:27:20.012Z,13.64
2023-05-06T13:29:47.030Z,13.64
2023-05-06T13:32:14.292Z,13.61
2023-05-06T13:34:41.264Z,13.54
2023-05-06T13:37:08.445Z,13.48
2023-05-06T13:39:35.955Z,13.52
2023-05-06T13:42:03.492Z,13.56
2023-05-06T13:44:31.508Z,13.62
2023-05-06T13:46:58.683Z,13.56
2023-05-06T13:49:26.170Z,13.50
2023-05-06T13:51:53.779Z,13.47
2023-05-06T13:54:21.007Z,13.52
2023-05-06T13:56:48.132Z,13.54
2023-05-06T13:59:15.058Z,13.48
2023-05-06T14:01:42.577Z,13.49
2023-05-06T14:04:09.557Z,13.47
2023-05-06T14:06:36.646Z,13.50
2023-05-06T14:09:06.625Z,13.54
2023-05-06T14:11:36.823Z,13.61
2023-05-06T14:14:03.841Z,13.63
2023-05-06T14:16:30.879Z,13.57
2023-05-06T14:18:57.861Z,13.51
2023-05-06T14:21:25.290Z,13.46
2023-05-06T14:23:52.259Z,13.43
2023-05-06T14:26:19.328Z,13.37
2023-05-06T14:28:46.108Z,13.42
2023-05-06T14:31:13.116Z,13.41
2023-05-06T14:33:40.157Z,13.35
2023-05-06T14:36:07.458Z,13.31
2023-05-06T14:38:34.395Z,13.28
2023-05-06T14:41:01.631Z,13.25
2023-05-06T14:43:28.640Z,13.25
2023-05-06T14:45:55.756Z,13.21
2023-05-06T14:48:22.793Z,13.16
2023-05-06T14:50:49.850Z,13.12
2023-05-06T14:53:16.837Z,13.11
2023-05-06T14:55:45.384Z,13.08
2023-05-06T14:58:12.516Z,13.05
2023-05-06T15:00:39.510Z,13.01
2023-05-06T15:03:06.737Z,12.95
2023-05-06T15:05:41.811Z,12.86
2023-05-06T15:08:10.307Z,12.81
2023-05-06T15:10:37.489Z,12.81
2023-05-06T15:13:05.307Z,12.79
2023-05-06T15:15:35.643Z,12.78
2023-05-06T15:18:03.121Z,12.77
2023-05-06T15:20:40.470Z,12.77
2023-05-06T15:23:07.836Z,12.76
2023-05-06T15:25:36.492Z,12.75
2023-05-06T15:28:08.853Z,12.70
2023-05-06T15:30:38.078Z,12.61
2023-05-06T15:33:05.199Z,12.54
2023-05-06T15:35:32.412Z,12.50
2023-05-06T15:37:59.753Z,12.45
2023-05-06T15:40:26.930Z,12.40
2023-05-06T15:42:57.380Z,12.35
2023-05-06T15:45:24.661Z,12.29
2023-05-06T15:47:52.147Z,12.24
2023-05-06T15:50:31.952Z,12.21
2023-05-06T15:53:01.577Z,12.17
2023-05-06T15:55:28.959Z,12.14
2023-05-06T15:57:57.436Z,12.09
2023-05-06T16:00:28.156Z,12.03
2023-05-06T16:02:55.636Z,11.97
2023-05-06T16:05:25.669Z,11.90
2023-05-06T16:07:54.709Z,11.87
2023-05-06T16:10:21.785Z,11.85
2023-05-06T16:12:48.759Z,11.83
2023-05-06T16:15:17.135Z,11.82
2023-05-06T16:17:47.320Z,11.81
2023-05-06T16:20:15.053Z,11.80
2023-05-06T16:22:42.123Z,11.75
2023-05-06T16:25:09.536Z,11.69
2023-05-06T16:27:36.875Z,11.64
2023-05-06T16:30:04.441Z,11.60
2023-05-06T16:32:34.832Z,11.57
2023-05-06T16:35:02.062Z,11.53
2023-05-06T16:37:30.567Z,11.48
2023-05-06T16:40:01.930Z,11.44
2023-05-06T16:42:32.037Z,11.39
2023-05-06T16:45:12.680Z,11.33
2023-05-06T16:47:45.931Z,11.27
2023-05-06T16:50:21.680Z,11.21
2023-05-06T16:52:54.376Z,11.15
2023-05-06T16:55:27.430Z,11.11
2023-05-06T16:58:00.842Z,11.07
2023-05-06T17:00:39.245Z,11.00
2023-05-06T17:03:12.010Z,10.91
2023-05-06T17:05:47.011Z,10.83
2023-05-06T17:08:18.799Z,10.78
2023-05-06T17:10:49.727Z,10.72
2023-05-06T17:13:24.432Z,10.64
2023-05-06T17:15:51.823Z,10.56
2023-05-06T17:18:26.815Z,10.51
2023-05-06T17:21:07.873Z,10.42
2023-05-06T17:23:42.418Z,10.35
2023-05-06T17:26:20.138Z,10.29
2023-05-06T17:28:58.861Z,10.22
2023-05-06T17:31:29.644Z,10.14
2023-05-06T17:34:16.345Z,10.10
2023-05-06T17:36:57.916Z,10.06
2023-05-06T17:39:33.754Z,10.01
2023-05-06T17:42:10.158Z,9.94
2023-05-06T17:45:04.390Z,9.88
2023-05-06T17:47:39.159Z,9.83
2023-05-06T17:50:34.782Z,9.79
2023-05-06T17:53:51.911Z,9.73
2023-05-06T17:56:53.297Z,9.66
2023-05-06T17:59:30.220Z,9.61
2023-05-06T18:02:17.388Z,9.57
2023-05-06T18:05:28.847Z,9.53
2023-05-06T18:08:35.023Z,9.49
2023-05-06T18:11:25.012Z,9.44
2023-05-06T18:14:00.567Z,9.41
2023-05-06T18:17:05.189Z,9.36
2023-05-06T18:23:24.940Z,9.26
2023-05-06T18:25:58.026Z,9.21
2023-05-06T18:29:03.812Z,9.17
2023-05-06T18:46:53.963Z,8.89
2023-05-06T18:50:33.870Z,8.86
2023-05-06T18:52:49.275Z,8.82
2023-05-06T18:55:21.852Z,8.80
2023-05-06T18:57:49.420Z,8.76
2023-05-06T19:00:18.910Z,8.73
2023-05-06T19:02:46.398Z,8.71
2023-05-06T19:05:13.768Z,8.70
2023-05-06T19:07:41.901Z,8.69
2023-05-06T19:10:09.609Z,8.67
2023-05-06T19:12:36.760Z,8.66
2023-05-06T19:15:04.076Z,8.65
2023-05-06T19:17:31.287Z,8.63
2023-05-06T19:19:58.516Z,8.61
2023-05-06T19:22:25.595Z,8.59
2023-05-06T19:24:53.136Z,8.58
2023-05-06T19:27:20.361Z,8.57
2023-05-06T19:29:48.386Z,8.56
2023-05-06T19:32:15.308Z,8.54
2023-05-06T19:34:42.797Z,8.53
2023-05-06T19:37:21.394Z,8.51
2023-05-06T19:39:58.892Z,8.48
2023-05-06T19:42:26.028Z,8.46
2023-05-06T19:44:53.145Z,8.43
2023-05-06T19:47:22.254Z,8.42
2023-05-06T19:49:51.339Z,8.40
2023-05-06T19:52:18.325Z,8.38
2023-05-06T19:54:45.735Z,8.37
2023-05-06T19:57:13.021Z,8.35
2023-05-06T19:59:40.080Z,8.32
2023-05-06T20:02:10.877Z,8.30
2023-05-06T20:04:45.736Z,8.28
2023-05-06T20:07:14.056Z,8.23
2023-05-06T20:09:41.083Z,8.21
2023-05-06T20:12:08.229Z,8.19
2023-05-06T20:14:35.447Z,8.18
2023-05-06T20:17:05.424Z,8.17
2023-05-06T20:19:32.617Z,8.15
2023-05-06T20:22:02.788Z,8.12
2023-05-06T20:24:29.940Z,8.09
2023-05-06T20:26:59.115Z,8.04
2023-05-06T20:29:32.632Z,8.00
2023-05-06T20:32:14.579Z,7.98
2023-05-06T20:34:52.148Z,7.95
2023-05-06T20:37:22.945Z,7.90
2023-05-06T20:39:49.834Z,7.86
2023-05-06T20:42:17.033Z,7.83
2023-05-06T20:44:44.280Z,7.81
2023-05-06T20:47:12.714Z,7.77
2023-05-06T20:49:39.938Z,7.72
2023-05-06T20:54:03.528Z,7.69
2023-05-06T20:55:49.474Z,7.66
2023-05-06T20:58:23.957Z,7.61
2023-05-06T21:00:54.124Z,7.57
2023-05-06T21:03:25.941Z,7.53
2023-05-06T21:05:53.909Z,7.50
2023-05-06T21:08:20.977Z,7.48
2023-05-06T21:10:47.947Z,7.46
2023-05-06T21:13:17.604Z,7.43
2023-05-06T21:15:44.664Z,7.41
2023-05-06T21:18:11.654Z,7.38
2023-05-06T21:20:38.774Z,7.35
2023-05-06T21:23:05.691Z,7.33
2023-05-06T21:25:32.643Z,7.29
2023-05-06T21:28:03.635Z,7.27
2023-05-06T21:30:31.281Z,7.23
2023-05-06T21:32:58.657Z,7.20
2023-05-06T21:35:26.139Z,7.18
2023-05-06T21:37:53.081Z,7.12
2023-05-06T21:43:42.427Z,7.05
2023-05-06T21:46:09.367Z,7.02
2023-05-06T21:48:36.608Z,7.00
2023-05-06T21:51:03.872Z,6.99
2023-05-06T21:53:30.837Z,6.97
2023-05-06T21:55:57.591Z,6.95
2023-05-06T21:58:24.293Z,6.94
2023-05-06T22:00:52.336Z,6.92
2023-05-06T22:03:19.331Z,6.89
2023-05-06T22:05:46.293Z,6.87
2023-05-06T22:08:13.031Z,6.85
2023-05-06T22:10:39.730Z,6.84
2023-05-06T22:13:06.962Z,6.82
2023-05-06T22:15:33.758Z,6.80
2023-05-06T22:18:00.566Z,6.78
2023-05-06T22:20:28.437Z,6.76
2023-05-06T22:22:55.321Z,6.75
2023-05-06T22:25:22.240Z,6.74
2023-05-06T22:27:48.965Z,6.71
2023-05-06T22:30:16.384Z,6.70
2023-05-06T22:32:43.237Z,6.68
2023-05-06T22:35:10.422Z,6.67
2023-05-06T22:37:37.279Z,6.67
2023-05-06T22:40:04.378Z,6.66
2023-05-06T22:42:31.114Z,6.64
2023-05-06T22:44:57.856Z,6.61
2023-05-06T22:47:24.629Z,6.59
2023-05-06T22:49:51.517Z,6.57
2023-05-06T22:52:19.237Z,6.56
2023-05-06T22:54:46.105Z,6.56
2023-05-06T22:57:12.939Z,6.56
2023-05-06T22:59:39.885Z,6.55
2023-05-06T23:02:06.665Z,6.55
2023-05-06T23:04:33.458Z,6.55
2023-05-06T23:07:00.170Z,6.54
2023-05-06T23:09:26.928Z,6.53
2023-05-06T23:11:53.697Z,6.52
2023-05-06T23:14:20.513Z,6.52
2023-05-06T23:16:47.316Z,6.50
2023-05-06T23:19:14.225Z,6.50
2023-05-06T23:21:41.605Z,6.49
2023-05-06T23:24:08.822Z,6.50
2023-05-06T23:26:35.581Z,6.49
2023-05-06T23:29:02.289Z,6.49
2023-05-06T23:31:29.049Z,6.48
2023-05-06T23:33:55.975Z,6.46
2023-05-06T23:36:22.862Z,6.43
2023-05-06T23:38:49.592Z,6.42
2023-05-06T23:41:16.246Z,6.39
2023-05-06T23:43:43.010Z,6.38
2023-05-06T23:46:09.802Z,6.37
2023-05-06T23:48:37.601Z,6.37
2023-05-06T23:51:04.533Z,6.35
2023-05-06T23:53:31.267Z,6.36
2023-05-06T23:55:57.996Z,6.34
2023-05-06T23:58:24.677Z,6.32
